Time;durP1;ratioP1;P1;durP2;ratioP2;P2;SDS_P1;SDS_P2;PMS_P1;PMS_P2;Temp;Humidity;BMP_temperature;BMP_pressure;BME280_temperature;BME280_humidity;BME280_pressure;Samples;Min_cycle;Max_cycle;Signal;HPM_P1;HPM_P2
2023/05/09 00:01:14;;;;;;;53.22;46.03;;;22.60;60.10;;;;;;4907772;55;21051;-35
2023/05/09 00:06:14;;;;;;;52.50;46.80;;;22.60;60.10;;;;;;4746679;55;21581;-36
2023/05/09 00:11:15;;;;;;;51.53;45.53;;;22.60;60.10;;;;;;4715431;55;21084;-36
2023/05/09 00:16:17;;;;;;;50.67;45.17;;;22.70;60.10;;;;;;4759904;55;21015;-37
2023/05/09 00:21:18;;;;;;;50.30;44.92;;;22.60;60.10;;;;;;4715854;59;21592;-37
2023/05/09 00:26:20;;;;;;;48.55;43.45;;;22.60;60.00;;;;;;4778542;55;20999;-35
2023/05/09 00:31:21;;;;;;;50.25;43.22;;;22.60;60.10;;;;;;4715894;55;21542;-37
2023/05/09 00:36:22;;;;;;;50.58;44.15;;;22.60;59.90;;;;;;4715665;59;21012;-37
2023/05/09 00:41:23;;;;;;;47.42;42.05;;;22.60;59.90;;;;;;4740072;55;21578;-37
2023/05/09 00:46:24;;;;;;;49.08;43.03;;;22.60;60.00;;;;;;4716259;55;21018;-37
2023/05/09 00:51:27;;;;;;;46.65;41.63;;;22.60;59.90;;;;;;4715251;56;21489;-35
2023/05/09 00:56:28;;;;;;;47.17;42.17;;;22.60;60.00;;;;;;4786918;55;21497;-36
2023/05/09 01:01:29;;;;;;;45.25;40.40;;;22.60;59.60;;;;;;4719936;55;21076;-37
2023/05/09 01:12:48;;;;;;;43.72;39.08;;;22.60;60.00;;;;;;4744873;55;21451;-36
2023/05/09 01:21:07;;;;;;;43.55;38.58;;;22.60;60.00;;;;;;4737774;55;21024;-36
2023/05/09 01:29:26;;;;;;;42.83;38.22;;;22.60;59.90;;;;;;4754893;55;21542;-34
2023/05/09 01:34:29;;;;;;;43.85;39.13;;;22.60;59.80;;;;;;4747943;55;21046;-34
2023/05/09 01:39:32;;;;;;;40.47;36.17;;;22.60;59.80;;;;;;4734658;55;21052;-36
2023/05/09 01:44:37;;;;;;;42.50;38.00;;;22.60;59.90;;;;;;4716013;59;21035;-35
2023/05/09 01:49:41;;;;;;;41.85;37.33;;;22.60;60.00;;;;;;4814545;55;21027;-35
2023/05/09 01:54:43;;;;;;;40.75;36.35;;;22.60;59.80;;;;;;4752654;55;21011;-36
2023/05/09 01:59:46;;;;;;;40.05;35.67;;;22.60;59.80;;;;;;4715861;59;21004;-34
2023/05/09 02:04:48;;;;;;;42.33;37.72;;;22.60;59.80;;;;;;4732607;55;21055;-35
2023/05/09 02:09:52;;;;;;;38.70;34.20;;;22.60;59.80;;;;;;4735536;55;21070;-33
2023/05/09 02:14:53;;;;;;;38.63;34.47;;;22.60;59.80;;;;;;4757086;55;21633;-37
2023/05/09 02:19:54;;;;;;;37.67;33.70;;;22.60;59.80;;;;;;4774086;55;21035;-37
2023/05/09 02:24:55;;;;;;;37.55;33.58;;;22.60;59.80;;;;;;4725042;55;21071;-36
2023/05/09 02:30:00;;;;;;;39.30;35.05;;;22.60;59.70;;;;;;4716023;55;21079;-36
2023/05/09 02:35:02;;;;;;;36.58;32.67;;;22.50;59.70;;;;;;4771350;55;20996;-36
2023/05/09 02:40:08;;;;;;;39.58;34.78;;;22.60;59.80;;;;;;4728775;55;22125;-36
2023/05/09 02:45:10;;;;;;;37.25;33.25;;;22.60;59.80;;;;;;4742022;55;21534;-36
2023/05/09 02:50:11;;;;;;;36.50;32.50;;;22.60;59.90;;;;;;4834807;55;21557;-35
2023/05/09 02:55:12;;;;;;;36.10;32.08;;;22.60;59.20;;;;;;4755753;55;20995;-36
2023/05/09 03:00:14;;;;;;;36.10;32.15;;;22.60;60.40;;;;;;4751034;55;21881;-36
2023/05/09 03:05:15;;;;;;;35.97;32.15;;;22.60;59.70;;;;;;4729480;55;21684;-33
2023/05/09 03:10:16;;;;;;;34.13;30.42;;;22.50;59.70;;;;;;4715413;59;21389;-31
2023/05/09 03:15:17;;;;;;;35.55;31.73;;;22.60;59.70;;;;;;4715643;59;22230;-35
2023/05/09 03:20:18;;;;;;;34.95;31.25;;;22.60;59.80;;;;;;4716234;55;21155;-37
2023/05/09 03:25:25;;;;;;;34.08;30.48;;;22.60;59.80;;;;;;4729203;55;21032;-32
2023/05/09 03:30:26;;;;;;;34.10;30.45;;;22.60;59.70;;;;;;4729408;55;21553;-35
2023/05/09 03:35:26;;;;;;;34.65;30.95;;;22.60;59.60;;;;;;4720996;55;21518;-34
2023/05/09 03:40:27;;;;;;;33.05;29.52;;;22.60;59.70;;;;;;4869612;55;21071;-36
2023/05/09 03:45:28;;;;;;;33.80;30.20;;;22.50;59.60;;;;;;4727605;55;21068;-34
2023/05/09 03:50:29;;;;;;;31.00;27.70;;;22.50;59.60;;;;;;4801028;55;21562;-31
2023/05/09 03:55:30;;;;;;;32.47;28.98;;;22.60;59.70;;;;;;4754246;55;21027;-38
2023/05/09 04:00:31;;;;;;;31.23;27.92;;;22.60;59.60;;;;;;4802334;55;21019;-35
2023/05/09 04:05:35;;;;;;;30.73;27.45;;;22.60;59.70;;;;;;4723499;55;21477;-39
2023/05/09 04:10:36;;;;;;;31.62;28.25;;;22.50;59.50;;;;;;4717379;55;21067;-34
2023/05/09 04:15:36;;;;;;;31.08;27.85;;;22.50;59.60;;;;;;4758801;55;21019;-36
2023/05/09 04:20:37;;;;;;;29.92;26.73;;;22.50;59.60;;;;;;4716006;59;21561;-37
2023/05/09 04:25:38;;;;;;;30.88;27.58;;;22.50;59.70;;;;;;4901133;55;21052;-35
2023/05/09 04:30:39;;;;;;;29.90;26.80;;;22.50;59.70;;;;;;4727149;55;21477;-35
2023/05/09 04:35:40;;;;;;;30.00;26.65;;;22.50;59.70;;;;;;4777690;55;21138;-36
2023/05/09 04:40:41;;;;;;;28.90;25.42;;;22.50;59.70;;;;;;4725765;55;21000;-36
2023/05/09 04:45:44;;;;;;;30.52;27.23;;;22.50;59.80;;;;;;4741028;55;21064;-38
2023/05/09 04:50:47;;;;;;;30.08;26.87;;;22.50;59.80;;;;;;4740796;55;21507;-34
2023/05/09 04:55:48;;;;;;;28.70;25.70;;;22.50;59.70;;;;;;4730907;55;21498;-36
2023/05/09 05:00:49;;;;;;;26.87;24.00;;;22.50;59.70;;;;;;4722181;55;21079;-31
2023/05/09 05:05:49;;;;;;;29.63;26.08;;;22.50;59.60;;;;;;4715908;59;21506;-37
2023/05/09 05:10:50;;;;;;;26.98;24.25;;;22.50;59.60;;;;;;4752838;55;21028;-38
2023/05/09 05:15:51;;;;;;;26.95;24.15;;;22.50;59.70;;;;;;4720741;55;21043;-36
2023/05/09 05:20:52;;;;;;;26.42;23.67;;;22.50;59.60;;;;;;4715855;59;21035;-37
2023/05/09 05:25:53;;;;;;;26.62;23.77;;;22.50;59.50;;;;;;4736489;55;21039;-35
2023/05/09 05:30:54;;;;;;;28.92;24.77;;;22.50;59.60;;;;;;4760413;55;21079;-35
2023/05/09 05:35:54;;;;;;;27.10;24.20;;;22.50;59.40;;;;;;4720578;55;21035;-36
2023/05/09 05:40:55;;;;;;;27.50;24.55;;;22.50;59.50;;;;;;4739100;55;21012;-37
2023/05/09 05:45:56;;;;;;;26.42;23.62;;;22.50;59.50;;;;;;4747275;55;21075;-36
2023/05/09 05:50:57;;;;;;;25.90;23.12;;;22.50;59.40;;;;;;4782729;55;21513;-35
2023/05/09 05:55:58;;;;;;;26.15;23.35;;;22.50;59.40;;;;;;4731674;55;21004;-37
2023/05/09 06:00:58;;;;;;;26.40;23.60;;;22.50;59.30;;;;;;4742455;55;21087;-37
2023/05/09 06:05:59;;;;;;;26.87;23.55;;;22.50;60.00;;;;;;4787685;55;21003;-34
2023/05/09 06:11:00;;;;;;;27.50;23.90;;;22.50;59.30;;;;;;4715471;59;21034;-34
2023/05/09 06:16:02;;;;;;;24.40;21.73;;;22.50;59.40;;;;;;4750277;55;21035;-35
2023/05/09 06:21:03;;;;;;;25.10;22.35;;;22.50;59.20;;;;;;4742184;55;21574;-32
2023/05/09 06:26:04;;;;;;;26.02;23.23;;;22.50;59.20;;;;;;4734283;55;21031;-31
2023/05/09 06:31:05;;;;;;;24.60;21.87;;;22.50;59.20;;;;;;4714839;59;21560;-35
2023/05/09 06:36:06;;;;;;;25.15;21.95;;;22.50;59.20;;;;;;4807067;55;21597;-35
2023/05/09 06:41:07;;;;;;;25.48;22.48;;;22.50;59.20;;;;;;4748940;55;21047;-36
2023/05/09 06:46:08;;;;;;;24.52;21.48;;;22.50;59.20;;;;;;4748250;55;21494;-32
2023/05/09 06:51:10;;;;;;;25.65;21.77;;;22.50;59.20;;;;;;4740027;55;21155;-35
2023/05/09 06:56:11;;;;;;;25.12;22.13;;;22.50;59.30;;;;;;4718044;55;21071;-37
2023/05/09 07:01:12;;;;;;;25.25;22.40;;;22.50;59.10;;;;;;4720535;55;21050;-36
2023/05/09 07:06:12;;;;;;;25.67;22.77;;;22.50;59.10;;;;;;4716848;55;20996;-33
2023/05/09 07:11:13;;;;;;;27.08;22.33;;;22.50;59.20;;;;;;4735547;55;21011;-37
2023/05/09 07:16:17;;;;;;;25.15;21.67;;;22.50;59.30;;;;;;4723616;55;21071;-35
2023/05/09 07:21:18;;;;;;;24.77;21.52;;;22.40;59.20;;;;;;4713578;59;21117;-36
2023/05/09 07:26:21;;;;;;;25.40;22.62;;;22.50;59.20;;;;;;4742191;55;21051;-36
2023/05/09 07:31:22;;;;;;;29.63;23.85;;;22.50;59.10;;;;;;4715721;56;21517;-35
2023/05/09 07:36:23;;;;;;;27.58;24.45;;;22.50;58.70;;;;;;4741376;55;21012;-30
2023/05/09 07:41:25;;;;;;;27.85;24.23;;;22.50;58.80;;;;;;4786384;55;21532;-36
2023/05/09 07:46:26;;;;;;;30.48;25.55;;;22.60;58.60;;;;;;4739728;55;21031;-33
2023/05/09 07:51:28;;;;;;;28.33;23.87;;;22.60;58.60;;;;;;4712910;59;21043;-37
2023/05/09 07:56:30;;;;;;;28.12;24.55;;;22.60;58.60;;;;;;4735054;55;21044;-34
2023/05/09 08:01:31;;;;;;;29.85;24.85;;;22.60;58.50;;;;;;4716462;59;21015;-32
2023/05/09 08:06:32;;;;;;;29.02;24.42;;;22.60;58.50;;;;;;4728541;55;21537;-31
2023/05/09 08:11:34;;;;;;;27.50;24.50;;;22.60;58.40;;;;;;4819972;55;21535;-34
2023/05/09 08:16:35;;;;;;;28.15;24.70;;;22.60;58.40;;;;;;4746167;55;21557;-36
2023/05/09 08:21:36;;;;;;;26.80;23.87;;;22.60;58.30;;;;;;4767110;55;21066;-36
2023/05/09 08:26:37;;;;;;;29.52;25.20;;;22.60;58.30;;;;;;4715681;59;21062;-37
2023/05/09 08:31:38;;;;;;;30.23;25.40;;;22.70;58.40;;;;;;4741544;55;21044;-39
2023/05/09 08:36:39;;;;;;;28.52;24.60;;;22.70;58.20;;;;;;4728633;55;21003;-36
2023/05/09 08:41:42;;;;;;;33.72;27.95;;;22.70;58.20;;;;;;4725872;55;21502;-33
2023/05/09 08:46:44;;;;;;;38.15;27.37;;;22.70;57.40;;;;;;4730113;55;21031;-33
2023/05/09 08:51:47;;;;;;;33.15;27.52;;;22.70;57.50;;;;;;4712649;59;21179;-35
2023/05/09 08:56:49;;;;;;;32.47;26.37;;;22.70;57.30;;;;;;4721649;55;21055;-36
2023/05/09 09:01:51;;;;;;;37.05;28.62;;;22.80;57.50;;;;;;4726063;55;21019;-34
2023/05/09 09:06:53;;;;;;;32.95;25.55;;;22.80;57.70;;;;;;4714009;56;21024;-35
2023/05/09 09:11:55;;;;;;;32.50;27.52;;;22.90;57.90;;;;;;4748655;55;21020;-37
2023/05/09 09:16:57;;;;;;;32.22;26.45;;;22.90;58.00;;;;;;4714453;59;21490;-35
2023/05/09 09:22:01;;;;;;;31.60;26.42;;;22.90;58.00;;;;;;4716181;55;21062;-35
2023/05/09 09:27:05;;;;;;;34.10;26.30;;;23.00;58.30;;;;;;4724096;55;21070;-35
2023/05/09 09:32:06;;;;;;;31.27;25.92;;;23.00;58.80;;;;;;4723875;55;21098;-28
2023/05/09 09:37:07;;;;;;;33.50;26.55;;;23.00;58.80;;;;;;4727285;55;21015;-31
2023/05/09 09:42:12;;;;;;;33.90;26.02;;;23.00;58.90;;;;;;4714484;55;21545;-31
2023/05/09 09:47:13;;;;;;;29.00;25.08;;;23.00;58.80;;;;;;4720744;55;21078;-31
2023/05/09 09:52:22;;;;;;;32.38;25.52;;;23.00;58.80;;;;;;4712356;59;21142;-29
2023/05/09 09:57:35;;;;;;;31.50;25.30;;;23.00;58.60;;;;;;4724451;55;21015;-32
2023/05/09 10:02:55;;;;;;;29.37;24.75;;;23.00;58.60;;;;;;4713987;59;21007;-31
2023/05/09 10:08:06;;;;;;;30.67;25.77;;;23.00;58.70;;;;;;4732977;55;21019;-32
2023/05/09 10:13:10;;;;;;;31.30;26.17;;;23.10;58.90;;;;;;4730695;55;21967;-32
2023/05/09 10:18:16;;;;;;;31.58;25.08;;;23.10;58.90;;;;;;4716610;55;21498;-31
2023/05/09 10:23:18;;;;;;;29.90;25.33;;;23.10;59.00;;;;;;4717701;55;21506;-29
2023/05/09 10:28:34;;;;;;;32.22;25.23;;;23.10;59.00;;;;;;4716373;55;21047;-28
2023/05/09 10:33:44;;;;;;;33.67;26.37;;;23.20;59.20;;;;;;4719476;55;21014;-36
2023/05/09 10:38:55;;;;;;;31.80;24.87;;;23.20;59.20;;;;;;4728191;55;21514;-32
2023/05/09 10:44:00;;;;;;;31.85;25.20;;;23.20;59.30;;;;;;4715139;55;21038;-36
2023/05/09 10:49:01;;;;;;;32.85;25.42;;;23.20;59.30;;;;;;4713496;56;21080;-33
2023/05/09 10:54:26;;;;;;;31.02;24.90;;;23.20;59.30;;;;;;4712822;55;21132;-38
2023/05/09 10:59:41;;;;;;;30.50;25.70;;;23.20;59.40;;;;;;4713647;59;21640;-37
2023/05/09 11:04:43;;;;;;;31.65;26.27;;;23.20;59.30;;;;;;4715586;55;21133;-32
2023/05/09 11:09:50;;;;;;;32.35;26.35;;;23.20;59.30;;;;;;4722532;55;21011;-34
2023/05/09 11:14:52;;;;;;;;;;;23.20;59.30;;;;;;4717440;56;21067;-36
2023/05/09 11:20:04;;;;;;;33.47;27.33;;;23.20;59.30;;;;;;4714667;55;20383;-32
2023/05/09 11:25:10;;;;;;;29.35;25.37;;;23.20;59.30;;;;;;4735117;55;21578;-33
2023/05/09 11:30:20;;;;;;;32.80;26.90;;;23.10;59.80;;;;;;4763632;55;21099;-33
2023/05/09 11:35:22;;;;;;;34.33;27.67;;;23.10;59.20;;;;;;4741803;55;21534;-31
2023/05/09 11:40:23;;;;;;;30.98;27.23;;;23.10;59.10;;;;;;4728095;55;21098;-32
2023/05/09 11:45:30;;;;;;;32.58;27.40;;;23.10;59.40;;;;;;4721751;55;21501;-33
2023/05/09 11:50:32;;;;;;;;;;;23.10;58.90;;;;;;4719369;55;21023;-32
2023/05/09 11:55:37;;;;;;;32.58;26.48;;;23.20;59.20;;;;;;4717544;55;20311;-31
2023/05/09 12:00:44;;;;;;;32.10;27.27;;;23.20;59.10;;;;;;4752562;55;21548;-32
2023/05/09 12:05:47;;;;;;;33.08;26.80;;;23.20;59.40;;;;;;4755080;55;21986;-31
2023/05/09 12:10:48;;;;;;;29.80;25.05;;;23.20;59.20;;;;;;4733246;55;21542;-32
2023/05/09 12:15:49;;;;;;;33.78;26.17;;;23.20;59.30;;;;;;4737523;55;21056;-29
2023/05/09 12:20:50;;;;;;;30.70;26.23;;;23.30;59.40;;;;;;4719317;55;21462;-33
2023/05/09 12:25:56;;;;;;;37.50;27.73;;;23.30;59.50;;;;;;4713782;59;21059;-35
2023/05/09 12:30:57;;;;;;;31.45;26.58;;;23.30;59.50;;;;;;4740539;55;21599;-32
2023/05/09 12:36:13;;;;;;;30.48;26.90;;;23.30;59.50;;;;;;4742012;55;21019;-30
2023/05/09 12:41:17;;;;;;;29.87;25.57;;;23.30;59.60;;;;;;4718148;55;21079;-33
2023/05/09 12:46:19;;;;;;;33.22;26.33;;;23.30;59.60;;;;;;4741787;55;21504;-30
2023/05/09 12:51:21;;;;;;;29.15;25.80;;;23.30;59.70;;;;;;4713066;56;21003;-28
2023/05/09 12:56:22;;;;;;;31.08;26.45;;;23.30;59.70;;;;;;4714125;55;21062;-32
2023/05/09 13:01:27;;;;;;;31.83;26.77;;;23.30;59.70;;;;;;4726583;55;22331;-29
2023/05/09 13:06:28;;;;;;;30.42;26.15;;;23.30;59.70;;;;;;4737567;55;21027;-28
2023/05/09 13:11:29;;;;;;;33.15;26.45;;;23.30;59.70;;;;;;4713415;56;21024;-28
2023/05/09 13:16:30;;;;;;;31.55;25.40;;;23.40;60.00;;;;;;4720716;55;21631;-27
2023/05/09 13:21:32;;;;;;;33.25;25.83;;;23.40;60.00;;;;;;4713802;55;21150;-33
2023/05/09 13:26:33;;;;;;;32.50;26.67;;;23.40;60.10;;;;;;4739949;55;21043;-34
2023/05/09 13:31:34;;;;;;;31.90;26.50;;;23.40;60.20;;;;;;4713168;55;21731;-31
2023/05/09 13:36:34;;;;;;;139.37;113.82;;;23.40;60.50;;;;;;4726442;55;21024;-36
2023/05/09 13:41:35;;;;;;;85.90;68.10;;;23.30;51.90;;;;;;4726093;55;21024;-33
2023/05/09 13:46:39;;;;;;;74.40;58.70;;;23.20;47.00;;;;;;4763392;55;21071;-31
2023/05/09 13:51:40;;;;;;;94.82;70.93;;;23.20;47.10;;;;;;4728462;55;21180;-34
2023/05/09 13:56:42;;;;;;;76.43;57.40;;;23.20;47.70;;;;;;4725801;55;21090;-32
2023/05/09 14:01:42;;;;;;;72.75;58.13;;;23.10;47.50;;;;;;4716189;55;21023;-34
2023/05/09 14:06:46;;;;;;;57.42;44.80;;;23.10;48.60;;;;;;4723346;55;20991;-32
2023/05/09 14:11:50;;;;;;;60.42;44.63;;;23.10;46.30;;;;;;4735744;55;21628;-33
2023/05/09 14:16:51;;;;;;;60.05;45.42;;;23.10;48.20;;;;;;4737758;55;21478;-34
2023/05/09 14:21:52;;;;;;;56.90;43.30;;;23.10;49.20;;;;;;4713325;55;21601;-35
2023/05/09 14:26:53;;;;;;;51.63;42.67;;;23.10;49.70;;;;;;4745568;55;21050;-36
2023/05/09 14:31:54;;;;;;;54.15;43.33;;;23.00;50.10;;;;;;4714791;55;21050;-35
2023/05/09 14:36:54;;;;;;;52.85;42.95;;;23.00;50.40;;;;;;4718282;55;21044;-38
2023/05/09 14:41:55;;;;;;;50.05;39.97;;;23.00;51.00;;;;;;4719605;55;21083;-35
2023/05/09 14:46:56;;;;;;;47.17;39.28;;;23.00;51.20;;;;;;4756455;55;21545;-36
2023/05/09 14:51:57;;;;;;;48.70;40.25;;;23.00;51.50;;;;;;4715191;56;21155;-35
2023/05/09 14:57:00;;;;;;;46.83;38.25;;;22.90;51.70;;;;;;4720700;55;21086;-33
2023/05/09 15:02:01;;;;;;;47.38;40.55;;;22.90;52.00;;;;;;4715541;59;22294;-34
2023/05/09 15:07:02;;;;;;;49.92;39.00;;;22.90;52.30;;;;;;4715750;55;21055;-36
2023/05/09 15:12:03;;;;;;;46.13;37.30;;;22.90;52.40;;;;;;4716182;55;21068;-37
2023/05/09 15:17:04;;;;;;;44.67;37.38;;;22.90;52.70;;;;;;4828189;55;21072;-34
2023/05/09 15:22:07;;;;;;;47.58;38.92;;;22.90;52.80;;;;;;4775728;55;21044;-34
2023/05/09 15:27:08;;;;;;;42.85;35.28;;;22.90;52.90;;;;;;4766597;55;21051;-36
2023/05/09 15:32:11;;;;;;;44.22;36.75;;;22.80;53.00;;;;;;4754358;55;21072;-33
2023/05/09 15:37:12;;;;;;;41.08;35.03;;;22.90;53.20;;;;;;4765603;55;21585;-34
2023/05/09 15:42:14;;;;;;;43.33;36.30;;;22.80;53.30;;;;;;4786651;55;21068;-35
2023/05/09 15:47:15;;;;;;;43.78;34.70;;;22.80;53.40;;;;;;4811349;55;21072;-35
2023/05/09 15:52:16;;;;;;;41.55;34.88;;;22.80;53.50;;;;;;4795102;55;21016;-33
2023/05/09 15:57:17;;;;;;;39.17;34.63;;;22.80;53.60;;;;;;4734536;55;21019;-35
2023/05/09 16:02:17;;;;;;;39.75;33.75;;;22.80;53.70;;;;;;4727986;55;21006;-36
2023/05/09 16:07:19;;;;;;;38.03;33.03;;;22.80;53.80;;;;;;4745596;55;21130;-33
2023/05/09 16:12:20;;;;;;;40.72;33.90;;;22.80;53.90;;;;;;4736733;55;21106;-34
2023/05/09 16:17:20;;;;;;;39.85;33.60;;;22.80;54.00;;;;;;4754006;55;21024;-33
2023/05/09 16:22:21;;;;;;;38.65;31.90;;;22.80;54.00;;;;;;4715388;55;21497;-34
2023/05/09 16:27:22;;;;;;;40.17;34.28;;;22.80;54.00;;;;;;4788062;55;21580;-32
2023/05/09 16:32:23;;;;;;;37.95;33.03;;;22.80;54.10;;;;;;4816203;55;21020;-34
2023/05/09 16:37:28;;;;;;;36.88;32.45;;;22.80;54.20;;;;;;4715985;59;21027;-33
2023/05/09 16:42:29;;;;;;;39.05;32.80;;;22.80;54.20;;;;;;4716102;59;21466;-32
2023/05/09 16:47:33;;;;;;;39.00;33.45;;;22.80;54.30;;;;;;4737589;55;21020;-36
2023/05/09 16:52:33;;;;;;;38.10;32.38;;;22.80;54.40;;;;;;4842402;55;21164;-36
2023/05/09 16:57:34;;;;;;;38.88;32.17;;;22.80;54.40;;;;;;4746806;55;21112;-34
2023/05/09 17:02:36;;;;;;;37.45;31.62;;;22.80;54.50;;;;;;4761270;55;21514;-34
2023/05/09 17:07:36;;;;;;;39.55;33.25;;;22.80;54.50;;;;;;4730645;55;21143;-32
2023/05/09 17:12:40;;;;;;;36.92;32.70;;;22.80;55.20;;;;;;4715254;56;21088;-35
2023/05/09 17:17:41;;;;;;;35.45;30.67;;;22.80;54.50;;;;;;4724571;55;21561;-36
2023/05/09 17:22:42;;;;;;;35.47;30.70;;;22.80;54.60;;;;;;4785982;55;21031;-35
2023/05/09 17:27:43;;;;;;;34.28;30.58;;;22.80;54.60;;;;;;4775988;55;21566;-34
2023/05/09 17:32:44;;;;;;;33.88;29.98;;;22.80;54.70;;;;;;4763296;55;21052;-35
2023/05/09 17:37:45;;;;;;;35.22;31.37;;;22.80;54.70;;;;;;5033790;55;21035;-36
2023/05/09 17:42:46;;;;;;;34.55;29.40;;;22.80;54.90;;;;;;4727853;55;21565;-35
2023/05/09 17:47:48;;;;;;;37.03;30.90;;;22.70;54.60;;;;;;4881046;55;21510;-33
2023/05/09 17:52:49;;;;;;;36.08;29.17;;;22.70;54.70;;;;;;4733525;55;21530;-35
2023/05/09 17:57:51;;;;;;;35.05;31.25;;;22.80;54.80;;;;;;5053970;55;21482;-37
2023/05/09 18:02:51;;;;;;;32.83;29.23;;;22.70;54.70;;;;;;4716494;55;21016;-34
2023/05/09 18:07:52;;;;;;;34.47;29.50;;;22.70;54.70;;;;;;4716468;55;21478;-36
2023/05/09 18:12:53;;;;;;;33.50;28.33;;;22.70;54.70;;;;;;4749753;55;21102;-32
2023/05/09 18:17:56;;;;;;;33.28;28.40;;;22.80;54.80;;;;;;4767196;55;21485;-36
2023/05/09 18:22:58;;;;;;;33.45;28.40;;;22.70;54.80;;;;;;4827831;55;21517;-34
2023/05/09 18:27:59;;;;;;;33.55;27.33;;;22.70;54.70;;;;;;4736381;55;21633;-32
2023/05/09 18:33:03;;;;;;;35.30;27.62;;;22.70;54.80;;;;;;4826228;55;21015;-35
2023/05/09 18:38:04;;;;;;;32.80;28.17;;;22.70;54.80;;;;;;4775470;55;21132;-36
2023/05/09 18:43:05;;;;;;;31.98;28.25;;;22.70;54.80;;;;;;4882001;55;21024;-32
2023/05/09 18:48:06;;;;;;;29.73;26.00;;;22.70;54.80;;;;;;4715639;59;21562;-33
2023/05/09 18:53:07;;;;;;;31.92;27.80;;;22.70;54.80;;;;;;4726832;55;21489;-36
2023/05/09 18:58:08;;;;;;;32.00;26.90;;;22.70;54.70;;;;;;4815271;55;21204;-35
2023/05/09 19:03:08;;;;;;;28.73;25.62;;;22.70;54.80;;;;;;4721973;55;21565;-35
2023/05/09 19:08:09;;;;;;;31.20;27.65;;;22.70;54.70;;;;;;4719328;55;21003;-35
2023/05/09 19:13:10;;;;;;;30.25;26.73;;;22.70;54.80;;;;;;4714929;59;21012;-37
2023/05/09 19:18:11;;;;;;;30.92;25.75;;;22.70;54.80;;;;;;4715714;59;21019;-35
2023/05/09 19:23:12;;;;;;;30.85;27.13;;;22.70;54.90;;;;;;4716014;55;21542;-35
2023/05/09 19:28:13;;;;;;;30.85;27.02;;;22.70;55.00;;;;;;4800672;55;21083;-36
2023/05/09 19:33:14;;;;;;;28.65;25.55;;;22.70;54.90;;;;;;4716150;55;21649;-35
2023/05/09 19:38:15;;;;;;;28.35;25.25;;;22.70;54.90;;;;;;4726914;55;21072;-35
2023/05/09 19:43:16;;;;;;;31.85;27.65;;;22.70;54.90;;;;;;4716567;59;21530;-30
2023/05/09 19:48:16;;;;;;;29.60;25.52;;;22.70;54.90;;;;;;4819674;55;21019;-35
2023/05/09 19:53:17;;;;;;;31.15;26.02;;;22.70;54.90;;;;;;4729148;55;21087;-35
2023/05/09 19:58:18;;;;;;;29.40;25.23;;;22.70;54.90;;;;;;4716371;59;21467;-35
2023/05/09 20:03:19;;;;;;;30.67;25.15;;;22.70;54.90;;;;;;4727076;55;21497;-34
2023/05/09 20:08:20;;;;;;;28.92;25.65;;;22.70;55.00;;;;;;4779744;55;21024;-35
2023/05/09 20:13:21;;;;;;;27.25;24.25;;;22.70;54.90;;;;;;4776688;55;21505;-34
2023/05/09 20:18:22;;;;;;;30.27;25.90;;;22.70;55.00;;;;;;4751810;55;21578;-36
2023/05/09 20:23:23;;;;;;;29.48;25.17;;;22.70;55.00;;;;;;4854107;55;21123;-35
2023/05/09 20:28:26;;;;;;;29.27;24.77;;;22.70;55.00;;;;;;4755085;55;21541;-36
2023/05/09 20:33:28;;;;;;;27.62;24.48;;;22.70;55.00;;;;;;4804414;55;21505;-34
2023/05/09 20:38:29;;;;;;;28.42;24.60;;;22.70;55.00;;;;;;4715707;56;21582;-34
2023/05/09 20:43:30;;;;;;;31.00;25.58;;;22.70;55.00;;;;;;4738457;55;21052;-36
2023/05/09 20:48:31;;;;;;;29.37;24.67;;;22.70;55.00;;;;;;4719533;55;20991;-35
2023/05/09 20:53:33;;;;;;;28.75;24.83;;;22.70;55.00;;;;;;4749632;55;21031;-35
2023/05/09 20:58:34;;;;;;;28.17;24.73;;;22.70;55.00;;;;;;4827094;55;21482;-35
2023/05/09 21:03:35;;;;;;;30.95;25.10;;;22.60;54.90;;;;;;4716361;55;21039;-34
2023/05/09 21:08:36;;;;;;;28.58;23.98;;;22.70;55.00;;;;;;4723746;55;21008;-34
2023/05/09 21:13:37;;;;;;;28.38;24.65;;;22.70;55.00;;;;;;4922598;55;21016;-35
2023/05/09 21:18:37;;;;;;;26.95;23.98;;;22.60;55.00;;;;;;4725247;55;21538;-35
2023/05/09 21:23:38;;;;;;;27.70;23.42;;;22.70;55.00;;;;;;4715834;55;21159;-36
2023/05/09 21:28:39;;;;;;;27.40;23.48;;;22.70;55.00;;;;;;4731092;55;21019;-36
2023/05/09 21:33:40;;;;;;;27.05;23.48;;;22.60;54.90;;;;;;4714983;59;21039;-32
2023/05/09 21:38:41;;;;;;;27.67;23.67;;;22.70;55.00;;;;;;4779443;55;21014;-36
2023/05/09 21:43:42;;;;;;;27.55;23.85;;;22.60;55.00;;;;;;4718332;55;21011;-35
2023/05/09 21:48:42;;;;;;;27.23;23.62;;;22.70;55.20;;;;;;4779267;55;21015;-33
2023/05/09 21:53:45;;;;;;;27.62;23.45;;;22.70;55.10;;;;;;4727852;55;21055;-36
2023/05/09 21:58:46;;;;;;;27.83;22.98;;;22.60;55.10;;;;;;4715635;59;21510;-35
2023/05/09 22:03:47;;;;;;;26.87;23.80;;;22.60;55.10;;;;;;4718572;55;21035;-36
2023/05/09 22:08:49;;;;;;;28.38;23.12;;;22.60;55.20;;;;;;4715471;59;21030;-36
2023/05/09 22:13:50;;;;;;;25.12;21.30;;;22.60;55.20;;;;;;4751105;55;21442;-36
2023/05/09 22:18:52;;;;;;;24.92;21.83;;;22.60;55.20;;;;;;4715900;55;21015;-37
2023/05/09 22:23:53;;;;;;;27.37;22.37;;;22.60;55.20;;;;;;4726872;55;21545;-34
2023/05/09 22:28:54;;;;;;;25.35;22.33;;;22.60;55.20;;;;;;4725994;55;21426;-35
2023/05/09 22:33:55;;;;;;;24.27;21.35;;;22.60;55.30;;;;;;4724804;55;21027;-34
2023/05/09 22:38:55;;;;;;;26.83;21.25;;;22.60;55.30;;;;;;4852450;55;21027;-35
2023/05/09 22:43:56;;;;;;;26.90;22.90;;;22.70;55.30;;;;;;4777076;55;21078;-36
2023/05/09 22:48:57;;;;;;;24.33;21.25;;;22.60;55.30;;;;;;4734268;55;21086;-34
2023/05/09 22:53:58;;;;;;;23.95;21.35;;;22.60;55.50;;;;;;4725698;55;21518;-35
2023/05/09 22:58:59;;;;;;;23.25;20.73;;;22.60;55.40;;;;;;4735128;55;21019;-35
2023/05/09 23:04:00;;;;;;;26.70;22.98;;;22.60;55.40;;;;;;4741624;55;21573;-35
2023/05/09 23:09:01;;;;;;;25.92;21.67;;;22.60;55.40;;;;;;4816701;55;21012;-36
2023/05/09 23:14:02;;;;;;;26.10;21.62;;;22.60;55.50;;;;;;4718623;55;21047;-35
2023/05/09 23:19:03;;;;;;;23.60;20.83;;;22.60;55.50;;;;;;4783758;55;21027;-36
2023/05/09 23:24:05;;;;;;;23.50;20.95;;;22.60;55.50;;;;;;4796084;55;21517;-31
2023/05/09 23:29:05;;;;;;;23.90;20.35;;;22.60;55.60;;;;;;4780083;55;21558;-33
2023/05/09 23:34:06;;;;;;;24.85;21.65;;;22.60;55.50;;;;;;4753345;55;21040;-28
2023/05/09 23:39:07;;;;;;;24.02;20.10;;;22.60;55.50;;;;;;4776800;55;21055;-30
2023/05/09 23:44:08;;;;;;;23.27;19.77;;;22.60;55.60;;;;;;4726455;55;21506;-34
2023/05/09 23:49:09;;;;;;;25.55;21.77;;;22.60;55.60;;;;;;4761413;55;21098;-35
2023/05/09 23:54:10;;;;;;;23.38;20.83;;;22.60;55.60;;;;;;4854759;55;21031;-35
2023/05/09 23:59:10;;;;;;;22.02;18.75;;;22.60;55.70;;;;;;4764478;55;21039;-34
